Latest Coastal Weather Observations for Sunshine Coast Airport

IDQ60701

Issued at 12:02 am EST Wednesday 20 June 2018 (issued every 10 minutes, with the page automatically refreshed every 10 minutes)

About coastal observations | Map of coastal stations | Coastal observations for QLD | Marine services | Other Formats
Station Details ID: 040861 Name: SUNSHINE COAST AIRPORT Lat: -26.60 Lon: 153.09 Height: 3.3 m
Data from the previous 72 hours. | See also: Recent months at Sunshine Coast Airport
Date/Time
EST
Temp
°C
Wind Pressure Rain since
9am
mm
Weather Cloud Vis
km
Sea
Height
m
Swell
Dir  Spd
kts
Gust
kts
hPa Trend Height
m
Period
s
Dir
20/12:00am 7.5 W 6 7 1019.5 - - - Clear 47 - - - -
 
Date/Time
EST
Temp
°C
Wind Pressure Rain since
9am
mm
Weather Cloud Vis
km
Sea
Height
m
Swell
Dir  Spd
kts
Gust
kts
hPa Trend Height
m
Period
s
Dir
19/11:30pm 8.8 WNW 6 7 1019.6 - 0.0 - - 10 - - - -
19/11:00pm 8.8 W 7 8 1019.6 - 0.0 - - 10 - - - -
19/10:30pm 9.8 W 6 7 1019.7 - 0.0 - - 10 - - - -
19/10:00pm 10.7 WSW 6 7 1019.5 - 0.0 - - 10 - - - -
19/09:30pm 10.9 W 5 7 1019.5 - 0.0 - - 10 - - - -
19/09:00pm 12.0 SW 5 7 1019.4 - 0.0 - - 10 - - - -
19/08:30pm 12.0 WSW 5 7 1019.3 - 0.0 - - 10 - - - -
19/08:00pm 13.1 SW 8 13 1018.9 - 0.0 - - 10 - - - -
19/07:30pm 12.9 SW 8 10 1018.5 - 0.0 - - 10 - - - -
19/07:00pm 12.8 WSW 7 10 1018.1 - 0.0 - - 10 - - - -
19/06:30pm 13.1 WSW 6 8 1018.0 - 0.0 - - 10 - - - -
19/06:00pm 12.8 W 8 11 1017.7 - 0.0 - - 10 - - - -
19/05:30pm 13.3 W 6 7 1017.5 - 0.0 - - 10 - - - -
19/05:00pm 15.6 WSW 7 9 1017.4 - 0.0 - - 10 - - - -
19/04:30pm 17.3 WSW 11 15 1017.2 - 0.0 - - 10 - - - -
19/04:00pm 18.1 SW 10 19 1017.0 - 0.0 - - 10 - - - -
19/03:30pm 18.5 SW 15 21 1016.8 - 0.0 - Partly cloudy 10 - - - -
19/03:00pm 19.2 SW 12 17 1016.6 - 0.0 - Mostly clear 10 - - - -
19/02:30pm 19.6 SW 11 16 1016.7 - 0.0 - Partly cloudy 10 - - - -
19/02:00pm 19.4 SW 12 18 1016.7 - 0.0 - - 10 - - - -
19/01:30pm 19.1 WSW 10 15 1016.9 - 0.0 - - 10 - - - -
19/01:00pm 18.9 WSW 14 21 1017.0 - 0.0 - - 10 - - - -
19/12:30pm 18.6 WSW 14 21 1017.4 - 0.0 - - 10 - - - -
19/12:00pm 18.9 WSW 15 22 1017.7 - 0.0 - - 10 - - - -
19/11:30am 18.9 SW 14 22 1018.3 - 0.0 - - 10 - - - -
19/11:00am 18.1 WSW 12 17 1019.1 - 0.0 - - 10 - - - -
19/10:30am 17.3 SW 12 17 1019.3 - 0.0 - - 10 - - - -
19/10:00am 17.0 WSW 13 17 1019.4 - 0.0 - - 10 - - - -
19/09:30am 16.1 WSW 13 18 1019.3 - 0.0 - - 10 - - - -
19/09:00am 15.1 WSW 11 15 1018.9 - 0.0 - - 10 - - - -
19/08:30am 14.2 WSW 8 12 1018.6 - 0.0 - - 10 - - - -
19/08:00am 13.0 W 9 12 1018.5 - 0.0 - - 10 - - - -
19/07:30am 11.6 W 7 10 1018.7 - 0.0 - - 10 - - - -
19/07:00am 8.9 W 7 8 1018.5 - 0.0 - - 10 - - - -
19/06:30am 8.5 W 5 7 1018.2 - 0.0 - - 10 - - - -
19/06:00am 9.3 WSW 4 6 1017.8 - 0.0 - - 10 - - - -
19/05:30am 10.7 WSW 9 11 1017.5 - 0.0 - - 10 - - - -
19/05:00am 10.9 WSW 9 12 1017.5 - 0.0 - - 10 - - - -
19/04:30am 10.8 WSW 9 11 1017.6 - 0.0 - - 10 - - - -
19/04:00am 11.3 SW 9 13 1017.6 - 0.0 - - 10 - - - -
19/03:30am 11.0 WSW 8 11 1017.7 - 0.0 - - 10 - - - -
19/03:00am 11.5 SW 11 14 1017.7 - 0.0 - - 10 - - - -
19/02:30am 12.0 SW 10 15 1017.8 - 0.0 - - 10 - - - -
19/02:00am 12.2 WSW 12 17 1017.9 - 0.0 - - 10 - - - -
19/01:30am 12.0 WSW 11 16 1018.0 - 0.0 - - 10 - - - -
19/01:00am 12.2 SW 10 16 1018.3 - 0.0 - - 10 - - - -
19/12:30am 12.3 WSW 9 15 1018.4 - 0.0 - - 10 - - - -
19/12:00am 12.6 SW 10 17 1018.4 - 0.0 - - 10 - - - -
 
Date/Time
EST
Temp
°C
Wind Pressure Rain since
9am
mm
Weather Cloud Vis
km
Sea
Height
m
Swell
Dir  Spd
kts
Gust
kts
hPa Trend Height
m
Period
s
Dir
18/11:30pm 12.8 WSW 10 15 1018.4 - 0.0 - - 10 - - - -
18/11:00pm 12.6 WSW 9 14 1018.4 - 0.0 - - 10 - - - -
18/10:30pm 11.9 WSW 7 9 1018.6 - 0.0 - - 10 - - - -
18/10:00pm 12.8 SW 7 11 1018.8 - 0.0 - - 10 - - - -
18/09:30pm 12.4 WSW 9 12 1018.8 - 0.0 - - 10 - - - -
18/09:00pm 12.4 SW 9 14 1018.8 - 0.0 - - 10 - - - -
18/08:30pm 12.1 SW 5 6 1018.8 - 0.0 - - 10 - - - -
18/08:00pm 12.5 WSW 8 11 1018.8 - 0.0 - - 10 - - - -
18/07:30pm 12.2 WSW 8 10 1018.7 - 0.0 - - 10 - - - -
18/07:00pm 12.5 WSW 8 10 1018.5 - 0.0 - - 10 - - - -
18/06:30pm 12.9 WSW 7 13 1018.1 - 0.0 - - 10 - - - -
18/06:00pm 13.8 SW 4 13 1017.5 - 0.0 - - 10 - - - -
18/05:30pm 13.4 W 6 8 1017.1 - 0.0 - - 10 - - - -
18/05:00pm 15.3 WSW 9 12 1016.8 - 0.0 - - 10 - - - -
18/04:30pm 16.6 W 8 12 1016.4 - 0.0 - - 10 - - - -
18/04:00pm 17.5 W 10 15 1016.2 - 0.0 - - 10 - - - -
18/03:30pm 17.7 W 12 17 1015.9 - 0.0 - - 10 - - - -
18/03:00pm 18.0 SW 13 19 1015.8 - 0.0 - - 10 - - - -
18/02:30pm 18.5 W 13 19 1015.7 - 0.0 - - 10 - - - -
18/02:00pm 18.2 WSW 13 21 1016.1 - 0.0 - - 10 - - - -
18/01:30pm 18.1 WSW 13 19 1016.4 - 0.0 - - 10 - - - -
18/01:00pm 17.7 WSW 9 13 1016.8 - 0.0 - - 10 - - - -
18/12:30pm 17.3 WSW 10 14 1017.3 - 0.0 - - 10 - - - -
18/12:00pm 16.3 SW 14 22 1018.0 - 0.0 - - 10 - - - -
18/11:30am 16.5 SW 11 16 1018.6 - 0.0 - - 10 - - - -
18/11:00am 15.6 SSW 14 17 1019.1 - 0.0 - - 10 - - - -
18/10:30am 15.4 SW 15 22 1019.1 - 0.0 - - 10 - - - -
18/10:00am 14.7 SW 16 24 1019.3 - 0.0 - - 10 - - - -
18/09:30am 14.4 SW 16 25 1019.2 - 0.0 - - 10 - - - -
18/09:00am 13.8 WSW 17 24 1019.4 - 0.0 - - 10 - - - -
18/08:30am 13.1 SW 12 18 1019.5 - 0.0 - - 10 - - - -
18/08:00am 12.1 WSW 10 17 1019.5 - 0.0 - - 10 - - - -
18/07:30am 11.3 WSW 9 16 1019.2 - 0.0 - - 10 - - - -
18/07:00am 10.3 WSW 8 14 1019.1 - 0.0 - - 10 - - - -
18/06:30am 8.0 W 6 8 1019.1 - 0.0 - - 10 - - - -
18/06:00am 7.0 NW 4 5 1018.9 - 0.0 - - 10 - - - -
18/05:30am 8.4 WNW 2 5 1018.9 - 0.0 - - 10 - - - -
18/05:00am 8.3 NW 6 8 1018.8 - 0.0 - - 10 - - - -
18/04:30am 8.8 WSW 8 10 1018.9 - 0.0 - - 10 - - - -
18/04:00am 8.5 WSW 8 10 1018.9 - 0.0 - - 10 - - - -
18/03:30am 7.5 W 3 5 1018.9 - 0.0 - - 10 - - - -
18/03:00am 9.2 SW 5 7 1018.9 - 0.0 - - 10 - - - -
18/02:30am 7.1 WSW 5 11 1019.1 - 0.0 - - 10 - - - -
18/02:00am 4.9 WNW 4 6 1019.1 - 0.0 - - 10 - - - -
18/01:30am 5.4 NNW 3 5 1019.4 - 0.0 - - 10 - - - -
18/01:00am 5.5 NW 4 5 1019.5 - 0.0 - - 10 - - - -
18/12:30am 5.1 WNW 6 7 1019.5 - 0.0 - - 10 - - - -
18/12:00am 5.3 W 6 8 1019.7 - 0.0 - - 10 - - - -
 
Date/Time
EST
Temp
°C
Wind Pressure Rain since
9am
mm
Weather Cloud Vis
km
Sea
Height
m
Swell
Dir  Spd
kts
Gust
kts
hPa Trend Height
m
Period
s
Dir
17/11:30pm 6.2 W 6 7 1019.8 - 0.0 - - 10 - - - -
17/11:00pm 6.1 NW 5 9 1019.9 - 0.0 - - 10 - - - -
17/10:30pm 7.4 W 4 6 1020.1 - 0.0 - - 10 - - - -
17/10:00pm 8.0 WSW 4 6 1020.2 - 0.0 - - 10 - - - -
17/09:30pm 9.3 NNE 3 4 1019.9 - 0.0 - - 10 - - - -
17/09:00pm 8.2 SSW 5 8 1019.6 - 0.0 - - 10 - - - -
17/08:30pm 6.5 W 2 7 1019.6 - 0.0 - - 10 - - - -
17/08:00pm 8.1 CALM 0 3 1019.5 - 0.0 - - 10 - - - -
17/07:30pm 10.2 SW 6 7 1019.4 - 0.0 - - 10 - - - -
17/07:00pm 10.4 WNW 4 5 1019.2 - 0.0 - - 10 - - - -
17/06:30pm 10.6 W 6 7 1018.4 - 0.0 - - 10 - - - -
17/06:00pm 11.8 W 7 8 1018.1 - 0.0 - - 10 - - - -
17/05:30pm 12.8 WSW 6 6 1017.6 - 0.0 - - 10 - - - -
17/05:00pm 16.2 WSW 7 9 1017.3 - 0.0 - - 10 - - - -
17/04:30pm 18.2 WSW 9 14 1016.9 - 0.0 - - 10 - - - -
17/04:00pm 19.3 WSW 9 14 1016.6 - 0.0 - - 10 - - - -
17/03:30pm 19.9 WSW 11 17 1016.3 - 0.0 - - 10 - - - -
17/03:00pm 20.2 WSW 14 22 1016.1 - 0.0 - - 10 - - - -
17/02:30pm 20.5 WSW 11 16 1016.1 - 0.0 - - 10 - - - -
17/02:00pm 20.8 WSW 10 14 1016.4 - 0.0 - - 10 - - - -
17/01:30pm 20.3 WSW 11 18 1016.4 - 0.0 - - 10 - - - -
17/01:00pm 19.9 W 13 20 1016.6 - 0.0 - - 10 - - - -
17/12:30pm 19.2 WSW 11 16 1017.4 - 0.0 - - 10 - - - -
17/12:00pm 18.9 WSW 13 19 1018.0 - 0.0 - - 10 - - - -
17/11:30am 17.9 WSW 14 21 1018.8 - 0.0 - - 10 - - - -
17/11:00am 17.9 WSW 13 18 1019.1 - 0.0 - - 10 - - - -
17/10:30am 17.1 WSW 12 18 1019.5 - 0.0 - - 10 - - - -
17/10:00am 16.7 WSW 10 15 1020.0 - 0.0 - - 10 - - - -
17/09:30am 15.9 WSW 7 10 1020.4 - 0.0 - - 10 - - - -
17/09:00am 15.4 W 7 10 1020.6 - 0.2 - - 10 - - - -
17/08:30am 14.0 W 5 8 1020.5 - 0.2 - - 10 - - - -
17/08:00am 12.0 SW 5 7 1020.2 - 0.2 - - 10 - - - -
17/07:30am 11.3 W 9 10 1019.9 - 0.2 - - 10 - - - -
17/07:00am 10.1 W 9 10 1019.4 - 0.2 - - 10 - - - -
17/06:30am 9.4 W 8 9 1019.1 - 0.2 - - 10 - - - -
17/06:00am 8.6 W 6 8 1018.9 - 0.2 - - 10 - - - -
17/05:30am 8.5 WSW 4 7 1018.5 - 0.2 - - 10 - - - -
17/05:00am 8.7 WNW 5 6 1018.2 - 0.2 - - 10 - - - -
17/04:30am 9.2 WNW 6 7 1018.1 - 0.2 - - 10 - - - -
17/04:00am 9.2 WNW 6 7 1018.3 - 0.2 - - 10 - - - -
17/03:30am 9.3 WNW 6 7 1018.3 - 0.2 - - 10 - - - -
17/03:00am 9.1 WNW 6 7 1018.5 - 0.2 - - 10 - - - -
17/02:30am 8.6 WNW 6 7 1018.6 - 0.2 - - 10 - - - -
17/02:00am 8.4 W 5 6 1018.9 - 0.2 - - 10 - - - -
17/01:30am 8.3 W 5 7 1019.2 - 0.2 - - 10 - - - -
17/01:00am 8.5 WSW 5 6 1019.4 - 0.2 - - 10 - - - -
17/12:30am 9.2 W 6 6 1019.5 - 0.2 - - 10 - - - -

Other Formats:

Comma delimited format used in spreadsheet applications
http://www.bom.gov.au/fwo/IDQ60701/IDQ60701.94569.axf

JavaScript Object Notation format (JSON) in row-major order
http://www.bom.gov.au/fwo/IDQ60701/IDQ60701.94569.json